createdAt,value
2023-04-18T00:01:41.183Z,8.06
2023-04-18T00:04:07.662Z,8.00
2023-04-18T00:06:34.097Z,7.92
2023-04-18T00:09:00.360Z,7.95
2023-04-18T00:11:26.623Z,8.00
2023-04-18T00:13:52.865Z,7.93
2023-04-18T00:16:19.128Z,7.84
2023-04-18T00:18:45.357Z,7.69
2023-04-18T00:21:11.654Z,7.71
2023-04-18T00:23:37.927Z,7.66
2023-04-18T00:26:04.163Z,7.60
2023-04-18T00:28:30.465Z,7.59
2023-04-18T00:30:56.806Z,7.63
2023-04-18T00:33:23.118Z,7.64
2023-04-18T00:35:49.394Z,7.65
2023-04-18T00:38:15.740Z,7.63
2023-04-18T00:40:41.974Z,7.60
2023-04-18T00:43:08.217Z,7.56
2023-04-18T00:45:34.487Z,7.54
2023-04-18T00:48:00.853Z,7.48
2023-04-18T00:50:27.213Z,7.33
2023-04-18T00:52:53.472Z,7.27
2023-04-18T00:55:19.723Z,7.25
2023-04-18T00:57:45.985Z,7.27
2023-04-18T01:00:12.255Z,7.24
2023-04-18T01:02:38.626Z,7.19
2023-04-18T01:05:04.937Z,7.19
2023-04-18T01:07:31.185Z,7.15
2023-04-18T01:09:57.474Z,7.16
2023-04-18T01:12:23.738Z,7.12
2023-04-18T01:14:49.990Z,7.08
2023-04-18T01:17:16.266Z,6.98
2023-04-18T01:19:42.547Z,6.94
2023-04-18T01:22:08.798Z,6.95
2023-04-18T01:24:35.035Z,6.92
2023-04-18T01:27:01.297Z,6.92
2023-04-18T01:29:27.605Z,6.93
2023-04-18T01:31:53.902Z,6.95
2023-04-18T01:34:20.177Z,6.90
2023-04-18T01:36:46.484Z,6.70
2023-04-18T01:39:12.773Z,6.70
2023-04-18T01:41:39.032Z,6.71
2023-04-18T01:44:05.312Z,6.75
2023-04-18T01:46:31.644Z,6.77
2023-04-18T01:48:57.933Z,6.78
2023-04-18T01:51:24.169Z,6.66
2023-04-18T01:53:50.401Z,6.65
2023-04-18T01:56:16.714Z,6.61
2023-04-18T01:58:43.002Z,6.62
2023-04-18T02:01:09.283Z,6.60
2023-04-18T02:03:35.789Z,6.53
2023-04-18T02:06:02.204Z,6.47
2023-04-18T02:08:28.457Z,6.53
2023-04-18T02:10:54.714Z,6.56
2023-04-18T02:13:21.015Z,6.58
2023-04-18T02:15:47.294Z,6.44
2023-04-18T02:18:13.538Z,6.49
2023-04-18T02:20:39.794Z,6.55
2023-04-18T02:23:06.085Z,6.37
2023-04-18T02:25:32.382Z,6.31
2023-04-18T02:27:58.625Z,6.31
2023-04-18T02:30:24.899Z,6.35
2023-04-18T02:32:51.181Z,6.39
2023-04-18T02:35:17.506Z,6.27
2023-04-18T02:37:43.743Z,6.21
2023-04-18T02:40:09.993Z,6.24
2023-04-18T02:42:36.224Z,6.24
2023-04-18T02:45:02.484Z,6.26
2023-04-18T02:47:29.483Z,6.29
2023-04-18T02:49:56.625Z,6.21
2023-04-18T02:52:22.900Z,6.14
2023-04-18T02:54:49.145Z,6.10
2023-04-18T02:57:15.401Z,6.16
2023-04-18T02:59:41.654Z,6.19
2023-04-18T03:02:07.934Z,6.17
2023-04-18T03:04:34.227Z,6.15
2023-04-18T03:07:00.481Z,6.11
2023-04-18T03:09:26.721Z,6.07
2023-04-18T03:11:52.964Z,6.01
2023-04-18T03:14:19.236Z,6.00
2023-04-18T03:16:45.517Z,5.91
2023-04-18T03:19:11.736Z,5.91
2023-04-18T03:21:37.974Z,5.91
2023-04-18T03:24:04.240Z,5.91
2023-04-18T03:26:30.495Z,5.81
2023-04-18T03:28:56.787Z,5.83
2023-04-18T03:31:23.052Z,5.76
2023-04-18T03:33:49.316Z,5.72
2023-04-18T03:36:15.584Z,5.69
2023-04-18T03:38:41.821Z,5.72
2023-04-18T03:41:08.064Z,5.70
2023-04-18T03:43:34.340Z,5.73
2023-04-18T03:46:00.677Z,5.66
2023-04-18T03:48:26.964Z,5.69
2023-04-18T03:50:53.202Z,5.70
2023-04-18T03:53:19.454Z,5.69
2023-04-18T03:55:45.734Z,5.69
2023-04-18T03:58:12.054Z,5.73
2023-04-18T04:00:38.305Z,5.68
2023-04-18T04:03:04.737Z,5.58
2023-04-18T04:05:31.174Z,5.52
2023-04-18T04:07:57.409Z,5.49
2023-04-18T04:10:23.636Z,5.50
2023-04-18T04:12:49.926Z,5.43
2023-04-18T04:15:16.186Z,5.45
2023-04-18T04:17:42.498Z,5.49
2023-04-18T04:20:08.773Z,5.42
2023-04-18T04:22:35.016Z,5.40
2023-04-18T04:25:01.271Z,5.40
2023-04-18T04:27:27.531Z,5.39
2023-04-18T04:29:53.772Z,5.40
2023-04-18T04:32:20.052Z,5.40
2023-04-18T04:34:46.393Z,5.24
2023-04-18T04:37:12.653Z,5.22
2023-04-18T04:39:38.889Z,5.22
2023-04-18T04:42:05.149Z,5.21
2023-04-18T04:44:31.444Z,5.22
2023-04-18T04:46:57.709Z,5.26
2023-04-18T04:49:23.935Z,5.15
2023-04-18T04:51:50.172Z,5.19
2023-04-18T04:54:16.693Z,5.24
2023-04-18T04:56:43.078Z,5.22
2023-04-18T04:59:09.302Z,5.26
2023-04-18T05:01:35.596Z,5.16
2023-04-18T05:04:02.002Z,5.14
2023-04-18T05:06:28.450Z,5.14
2023-04-18T05:08:54.720Z,5.26
2023-04-18T05:11:20.999Z,5.27
2023-04-18T05:13:47.309Z,5.36
2023-04-18T05:16:13.564Z,5.45
2023-04-18T05:18:39.843Z,5.48
2023-04-18T05:21:06.096Z,5.45
2023-04-18T05:23:32.534Z,5.54
2023-04-18T05:25:58.894Z,5.54
2023-04-18T05:28:25.190Z,5.60
2023-04-18T05:30:51.658Z,5.65
2023-04-18T05:33:18.082Z,5.66
2023-04-18T05:35:44.680Z,5.70
2023-04-18T05:38:11.456Z,5.72
2023-04-18T05:40:37.763Z,5.73
2023-04-18T05:43:04.558Z,5.69
2023-04-18T05:45:30.911Z,5.64
2023-04-18T05:47:57.237Z,5.67
2023-04-18T05:50:23.585Z,5.66
2023-04-18T05:52:49.804Z,5.66
2023-04-18T05:55:16.040Z,5.68
2023-04-18T05:57:42.312Z,5.73
2023-04-18T06:00:08.548Z,5.77
2023-04-18T06:02:35.023Z,5.80
2023-04-18T06:05:01.672Z,5.82
2023-04-18T06:07:32.733Z,5.87
2023-04-18T06:10:06.089Z,5.93
2023-04-18T06:12:33.692Z,5.95
2023-04-18T06:15:08.151Z,5.95
2023-04-18T06:17:42.225Z,5.96
2023-04-18T06:20:08.726Z,5.95
2023-04-18T06:22:35.394Z,5.96
2023-04-18T06:25:01.894Z,5.95
2023-04-18T06:27:31.486Z,5.98
2023-04-18T06:29:58.462Z,5.95
2023-04-18T06:32:24.987Z,5.93
2023-04-18T06:34:51.498Z,5.88
2023-04-18T06:37:17.976Z,5.95
2023-04-18T06:39:44.582Z,5.96
2023-04-18T06:42:11.260Z,5.91
2023-04-18T06:44:37.753Z,5.99
2023-04-18T06:47:04.611Z,6.25
2023-04-18T06:49:31.044Z,6.44
2023-04-18T06:51:57.356Z,6.58
2023-04-18T06:54:23.745Z,6.77
2023-04-18T06:56:50.155Z,6.91
2023-04-18T06:59:16.527Z,7.13
2023-04-18T07:01:42.967Z,7.25
2023-04-18T07:04:09.370Z,7.48
2023-04-18T07:06:35.717Z,7.61
2023-04-18T07:09:02.009Z,7.65
2023-04-18T07:11:28.356Z,7.88
2023-04-18T07:13:54.618Z,8.12
2023-04-18T07:16:20.973Z,8.18
2023-04-18T07:18:47.290Z,8.41
2023-04-18T07:21:13.551Z,8.42
2023-04-18T07:23:39.853Z,8.60
2023-04-18T07:26:06.149Z,8.73
2023-04-18T07:28:32.402Z,8.82
2023-04-18T07:30:58.745Z,8.72
2023-04-18T07:33:25.103Z,8.87
2023-04-18T07:35:51.389Z,8.84
2023-04-18T07:38:17.669Z,8.69
2023-04-18T07:40:43.924Z,8.84
2023-04-18T07:43:10.166Z,8.94
2023-04-18T07:45:36.394Z,8.83
2023-04-18T07:48:02.681Z,9.03
2023-04-18T07:50:28.988Z,9.14
2023-04-18T07:52:55.222Z,9.21
2023-04-18T07:55:21.470Z,9.34
2023-04-18T07:57:47.721Z,9.45
2023-04-18T08:00:14.064Z,9.55
2023-04-18T08:02:40.508Z,9.64
2023-04-18T08:05:06.930Z,9.73
2023-04-18T08:07:33.374Z,9.53
2023-04-18T08:09:59.639Z,9.70
2023-04-18T08:12:25.903Z,9.86
2023-04-18T08:14:52.153Z,9.98
2023-04-18T08:17:18.419Z,10.04
2023-04-18T08:19:44.694Z,9.93
2023-04-18T08:22:10.977Z,9.89
2023-04-18T08:24:37.266Z,10.09
2023-04-18T08:27:03.630Z,10.35
2023-04-18T08:29:30.893Z,10.51
2023-04-18T08:31:57.432Z,10.60
2023-04-18T08:34:23.966Z,10.58
2023-04-18T08:36:50.425Z,10.79
2023-04-18T08:39:16.886Z,10.91
2023-04-18T08:41:43.289Z,10.89
2023-04-18T08:44:09.752Z,10.68
2023-04-18T08:46:36.666Z,10.41
2023-04-18T08:49:02.987Z,10.24
2023-04-18T08:51:29.263Z,10.03
2023-04-18T08:53:55.505Z,9.83
2023-04-18T08:56:21.799Z,9.92
2023-04-18T08:58:48.094Z,10.15
2023-04-18T09:01:14.624Z,9.89
2023-04-18T09:03:41.168Z,10.13
2023-04-18T09:06:07.633Z,10.42
2023-04-18T09:08:34.104Z,10.21
2023-04-18T09:11:01.104Z,10.47
2023-04-18T09:13:27.487Z,10.27
2023-04-18T09:15:53.969Z,10.40
2023-04-18T09:18:20.405Z,10.57
2023-04-18T09:20:46.947Z,10.76
2023-04-18T09:23:13.503Z,10.79
2023-04-18T09:25:43.207Z,10.82
2023-04-18T09:28:14.118Z,11.00
2023-04-18T09:30:40.802Z,10.87
2023-04-18T09:33:07.572Z,11.15
2023-04-18T09:35:34.383Z,10.95
2023-04-18T09:38:00.832Z,11.07
2023-04-18T09:40:27.070Z,11.15
2023-04-18T09:42:53.361Z,11.46
2023-04-18T09:45:19.640Z,11.61
2023-04-18T09:47:45.985Z,11.62
2023-04-18T09:50:12.336Z,11.48
2023-04-18T09:52:38.605Z,11.42
2023-04-18T09:55:04.903Z,11.65
2023-04-18T09:57:31.154Z,11.64
2023-04-18T09:59:57.422Z,11.55
2023-04-18T10:02:23.796Z,11.66
2023-04-18T10:04:50.178Z,11.78
2023-04-18T10:07:16.471Z,11.93
2023-04-18T10:09:42.720Z,12.14
2023-04-18T10:12:08.972Z,12.29
2023-04-18T10:14:35.233Z,12.35
2023-04-18T10:17:01.471Z,12.55
2023-04-18T10:19:27.715Z,12.79
2023-04-18T10:21:54.011Z,12.94
2023-04-18T10:24:20.298Z,13.02
2023-04-18T10:26:46.595Z,13.01
2023-04-18T10:29:13.053Z,13.00
2023-04-18T10:31:39.648Z,12.95
2023-04-18T10:34:06.317Z,13.16
2023-04-18T10:36:32.653Z,13.28
2023-04-18T10:38:58.888Z,13.29
2023-04-18T10:41:25.171Z,13.28
2023-04-18T10:43:51.475Z,13.50
2023-04-18T10:46:31.082Z,13.62
2023-04-18T10:48:58.432Z,13.87
2023-04-18T10:51:24.691Z,13.98
2023-04-18T10:53:51.997Z,14.19
2023-04-18T10:56:18.323Z,14.36
2023-04-18T10:58:44.583Z,14.56
2023-04-18T11:01:10.896Z,14.37
2023-04-18T11:03:37.336Z,14.62
2023-04-18T11:06:03.664Z,14.64
2023-04-18T11:08:30.443Z,14.52
2023-04-18T11:10:56.752Z,14.81
2023-04-18T11:13:23.051Z,14.39
2023-04-18T11:15:49.307Z,14.75
2023-04-18T11:18:15.647Z,15.03
2023-04-18T11:20:41.923Z,15.34
2023-04-18T11:23:08.193Z,15.26
2023-04-18T11:25:34.487Z,15.21
2023-04-18T11:28:00.874Z,15.64
2023-04-18T11:30:27.268Z,15.76
2023-04-18T11:32:53.618Z,15.59
2023-04-18T11:35:19.918Z,15.97
2023-04-18T11:37:46.172Z,15.95
2023-04-18T11:40:12.431Z,15.94
2023-04-18T11:42:38.779Z,15.98
2023-04-18T11:45:05.063Z,16.18
2023-04-18T11:47:31.316Z,16.34
2023-04-18T11:49:57.591Z,16.35
2023-04-18T11:52:23.865Z,16.71
2023-04-18T11:54:50.145Z,16.73
2023-04-18T11:57:16.476Z,16.23
2023-04-18T11:59:43.014Z,16.39
2023-04-18T12:02:16.164Z,16.71
2023-04-18T12:04:43.061Z,16.52
2023-04-18T12:07:09.675Z,15.95
2023-04-18T12:09:36.105Z,16.18
2023-04-18T12:12:03.113Z,16.18
2023-04-18T12:14:29.565Z,16.31
2023-04-18T12:16:55.977Z,16.54
2023-04-18T12:19:22.440Z,16.73
2023-04-18T12:21:48.770Z,16.59
2023-04-18T12:24:15.130Z,16.80
2023-04-18T12:26:41.690Z,17.09
2023-04-18T12:29:08.058Z,16.94
2023-04-18T12:31:34.385Z,17.18
2023-04-18T12:34:00.698Z,16.89
2023-04-18T12:36:27.023Z,17.12
2023-04-18T12:38:53.298Z,16.64
2023-04-18T12:41:19.532Z,17.11
2023-04-18T12:43:45.821Z,17.23
2023-04-18T12:46:12.135Z,17.16
2023-04-18T12:48:38.430Z,17.31
2023-04-18T12:51:04.724Z,17.34
2023-04-18T12:53:31.011Z,17.73
2023-04-18T12:55:57.277Z,17.39
2023-04-18T12:58:24.466Z,18.03
2023-04-18T13:00:50.809Z,17.94
2023-04-18T13:03:17.326Z,17.90
2023-04-18T13:05:43.703Z,17.59
2023-04-18T13:08:17.158Z,17.82
2023-04-18T13:10:44.337Z,18.25
2023-04-18T13:13:10.613Z,18.38
2023-04-18T13:15:37.058Z,17.70
2023-04-18T13:18:03.520Z,17.88
2023-04-18T13:20:29.865Z,17.66
2023-04-18T13:22:56.321Z,17.78
2023-04-18T13:25:22.559Z,17.62
2023-04-18T13:27:48.801Z,17.78
2023-04-18T13:30:15.094Z,17.62
2023-04-18T13:32:43.318Z,17.81
2023-04-18T13:35:09.718Z,17.99
2023-04-18T13:37:35.962Z,17.68
2023-04-18T13:40:02.197Z,17.59
2023-04-18T13:42:28.684Z,17.87
2023-04-18T13:44:54.963Z,17.85
2023-04-18T13:47:21.310Z,18.17
2023-04-18T13:49:47.645Z,18.23
2023-04-18T13:52:13.918Z,18.45
2023-04-18T13:54:40.158Z,18.21
2023-04-18T13:57:06.394Z,18.34
2023-04-18T13:59:32.704Z,18.59
2023-04-18T14:01:59.122Z,18.21
2023-04-18T14:04:25.684Z,17.65
2023-04-18T14:06:52.234Z,17.69
2023-04-18T14:09:18.488Z,17.85
2023-04-18T14:11:44.739Z,17.75
2023-04-18T14:14:11.010Z,17.45
2023-04-18T14:16:37.247Z,17.55
2023-04-18T14:19:03.530Z,17.70
2023-04-18T14:21:29.809Z,17.73
2023-04-18T14:23:56.139Z,17.72
2023-04-18T14:26:22.426Z,17.58
2023-04-18T14:28:48.702Z,17.69
2023-04-18T14:31:14.986Z,17.87
2023-04-18T14:33:41.328Z,17.86
2023-04-18T14:36:07.597Z,17.35
2023-04-18T14:38:33.893Z,17.05
2023-04-18T14:41:00.180Z,17.30
2023-04-18T14:43:26.509Z,17.57
2023-04-18T14:45:52.773Z,17.59
2023-04-18T14:48:19.059Z,17.64
2023-04-18T14:50:45.399Z,17.61
2023-04-18T14:53:11.622Z,17.99
2023-04-18T14:55:37.886Z,17.81
2023-04-18T14:58:04.150Z,17.62
2023-04-18T15:00:30.429Z,17.82
2023-04-18T15:02:56.970Z,17.86
2023-04-18T15:05:23.335Z,17.92
2023-04-18T15:07:49.592Z,17.76
2023-04-18T15:10:15.815Z,17.36
2023-04-18T15:12:42.073Z,17.36
2023-04-18T15:15:08.317Z,17.41
2023-04-18T15:17:34.592Z,17.33
2023-04-18T15:20:00.860Z,17.23
2023-04-18T15:22:27.213Z,17.24
2023-04-18T15:24:53.477Z,17.38
2023-04-18T15:27:21.096Z,17.28
2023-04-18T15:29:47.389Z,17.22
2023-04-18T15:32:13.732Z,17.08
2023-04-18T15:34:40.062Z,17.03
2023-04-18T15:37:06.362Z,17.22
2023-04-18T15:39:32.656Z,17.29
2023-04-18T15:41:58.947Z,16.91
2023-04-18T15:44:25.211Z,16.85
2023-04-18T15:46:51.459Z,16.66
2023-04-18T15:49:17.698Z,16.72
2023-04-18T15:51:43.984Z,16.90
2023-04-18T15:54:10.285Z,16.98
2023-04-18T15:56:36.502Z,16.93
2023-04-18T15:59:02.764Z,16.67
2023-04-18T16:01:28.989Z,16.90
2023-04-18T16:03:55.329Z,16.58
2023-04-18T16:06:21.648Z,16.46
2023-04-18T16:08:47.923Z,16.34
2023-04-18T16:11:14.162Z,16.02
2023-04-18T16:13:40.394Z,15.98
2023-04-18T16:16:06.693Z,15.93
2023-04-18T16:18:32.948Z,15.96
2023-04-18T16:20:59.180Z,16.05
2023-04-18T16:23:25.393Z,15.82
2023-04-18T16:25:51.619Z,15.69
2023-04-18T16:28:17.846Z,15.70
2023-04-18T16:30:44.074Z,15.47
2023-04-18T16:33:10.399Z,15.26
2023-04-18T16:35:36.698Z,15.35
2023-04-18T16:38:05.868Z,15.31
2023-04-18T16:40:32.121Z,15.31
2023-04-18T16:42:58.405Z,15.03
2023-04-18T16:45:25.380Z,15.10
2023-04-18T16:47:51.715Z,15.15
2023-04-18T16:50:17.977Z,15.14
2023-04-18T16:52:44.218Z,15.16
2023-04-18T16:55:10.467Z,15.01
2023-04-18T16:57:36.692Z,14.67
2023-04-18T17:00:02.933Z,14.77
2023-04-18T17:02:29.310Z,14.72
2023-04-18T17:04:55.700Z,14.71
2023-04-18T17:07:21.935Z,14.77
2023-04-18T17:09:48.174Z,14.76
2023-04-18T17:12:14.410Z,14.89
2023-04-18T17:14:40.629Z,14.96
2023-04-18T17:17:06.839Z,14.92
2023-04-18T17:19:33.079Z,15.08
2023-04-18T17:21:59.303Z,15.17
2023-04-18T17:24:25.537Z,15.21
2023-04-18T17:26:51.989Z,15.33
2023-04-18T17:29:18.276Z,15.39
2023-04-18T17:31:44.541Z,15.45
2023-04-18T17:34:10.841Z,15.44
2023-04-18T17:36:37.133Z,15.48
2023-04-18T17:39:03.388Z,15.45
2023-04-18T17:41:29.609Z,15.41
2023-04-18T17:43:55.876Z,15.38
2023-04-18T17:46:22.134Z,15.32
2023-04-18T17:48:48.367Z,15.29
2023-04-18T17:51:14.585Z,15.21
2023-04-18T17:53:40.827Z,15.14
2023-04-18T17:56:07.069Z,15.02
2023-04-18T17:58:33.307Z,14.90
2023-04-18T18:00:59.582Z,14.72
2023-04-18T18:03:25.966Z,14.60
2023-04-18T18:05:52.316Z,14.07
2023-04-18T18:08:18.542Z,14.13
2023-04-18T18:10:46.502Z,13.80
2023-04-18T18:13:12.878Z,13.58
2023-04-18T18:15:39.108Z,13.42
2023-04-18T18:18:05.359Z,13.34
2023-04-18T18:20:31.637Z,13.28
2023-04-18T18:22:57.862Z,13.26
2023-04-18T18:25:24.086Z,13.20
2023-04-18T18:27:50.313Z,13.08
2023-04-18T18:30:16.568Z,13.01
2023-04-18T18:32:42.825Z,12.94
2023-04-18T18:35:09.092Z,12.58
2023-04-18T18:37:35.325Z,12.47
2023-04-18T18:40:01.540Z,12.37
2023-04-18T18:42:31.098Z,12.18
2023-04-18T18:44:57.326Z,12.09
2023-04-18T18:47:23.568Z,12.06
2023-04-18T18:49:49.815Z,11.95
2023-04-18T18:52:16.069Z,11.82
2023-04-18T18:54:42.318Z,11.70
2023-04-18T18:57:08.541Z,11.61
2023-04-18T18:59:34.824Z,11.51
2023-04-18T19:02:01.128Z,11.37
2023-04-18T19:04:27.598Z,11.28
2023-04-18T19:06:53.912Z,11.21
2023-04-18T19:09:20.150Z,11.11
2023-04-18T19:11:46.406Z,11.10
2023-04-18T19:14:12.625Z,10.98
2023-04-18T19:16:38.905Z,10.85
2023-04-18T19:19:05.206Z,10.70
2023-04-18T19:21:31.494Z,10.80
2023-04-18T19:23:57.742Z,10.81
2023-04-18T19:26:23.999Z,10.86
2023-04-18T19:28:50.231Z,10.67
2023-04-18T19:31:16.482Z,10.64
2023-04-18T19:33:42.748Z,10.67
2023-04-18T19:36:08.996Z,10.69
2023-04-18T19:38:35.256Z,10.66
2023-04-18T19:41:01.497Z,10.61
2023-04-18T19:43:27.742Z,10.67
2023-04-18T19:45:55.275Z,10.71
2023-04-18T19:48:22.095Z,10.64
2023-04-18T19:50:48.344Z,10.61
2023-04-18T19:53:14.579Z,10.55
2023-04-18T19:55:40.815Z,10.52
2023-04-18T19:58:07.054Z,10.44
2023-04-18T20:00:33.268Z,10.46
2023-04-18T20:02:59.820Z,10.39
2023-04-18T20:05:26.279Z,10.37
2023-04-18T20:07:52.634Z,10.36
2023-04-18T20:10:18.883Z,10.32
2023-04-18T20:12:45.146Z,10.40
2023-04-18T20:15:11.421Z,10.44
2023-04-18T20:17:37.731Z,10.47
2023-04-18T20:20:04.003Z,10.40
2023-04-18T20:22:30.339Z,10.34
2023-04-18T20:24:56.585Z,10.21
2023-04-18T20:27:22.824Z,10.07
2023-04-18T20:29:49.057Z,10.12
2023-04-18T20:32:15.313Z,10.13
2023-04-18T20:34:41.552Z,10.11
2023-04-18T20:37:07.770Z,10.15
2023-04-18T20:39:34.001Z,10.15
2023-04-18T20:42:00.280Z,10.11
2023-04-18T20:44:26.522Z,10.14
2023-04-18T20:46:52.794Z,10.11
2023-04-18T20:49:19.051Z,10.08
2023-04-18T20:51:45.286Z,10.02
2023-04-18T20:54:11.531Z,9.96
2023-04-18T20:56:37.775Z,9.85
2023-04-18T20:59:04.011Z,9.79
2023-04-18T21:01:30.359Z,9.78
2023-04-18T21:03:56.921Z,9.70
2023-04-18T21:06:23.350Z,9.69
2023-04-18T21:08:49.586Z,9.70
2023-04-18T21:11:15.825Z,9.65
2023-04-18T21:13:42.063Z,9.48
2023-04-18T21:16:08.349Z,9.46
2023-04-18T21:18:34.688Z,9.42
2023-04-18T21:21:00.961Z,9.36
2023-04-18T21:23:27.185Z,9.37
2023-04-18T21:25:53.421Z,9.31
2023-04-18T21:28:19.690Z,9.27
2023-04-18T21:30:45.909Z,9.22
2023-04-18T21:33:12.193Z,9.17
2023-04-18T21:35:38.423Z,9.15
2023-04-18T21:38:04.669Z,9.14
2023-04-18T21:40:30.919Z,9.13
2023-04-18T21:42:57.163Z,9.12
2023-04-18T21:45:23.461Z,9.09
2023-04-18T21:47:49.776Z,9.09
2023-04-18T21:50:16.096Z,9.11
2023-04-18T21:52:42.375Z,9.10
2023-04-18T21:55:08.646Z,9.13
2023-04-18T21:57:34.873Z,9.10
2023-04-18T22:00:01.135Z,8.95
2023-04-18T22:02:27.533Z,8.92
2023-04-18T22:04:53.897Z,8.80
2023-04-18T22:07:20.165Z,8.73
2023-04-18T22:09:46.408Z,8.67
2023-04-18T22:12:12.647Z,8.55
2023-04-18T22:14:38.924Z,8.64
2023-04-18T22:17:05.208Z,8.58
2023-04-18T22:19:31.475Z,8.41
2023-04-18T22:21:57.742Z,8.38
2023-04-18T22:24:23.991Z,8.42
2023-04-18T22:26:50.237Z,8.52
2023-04-18T22:29:16.491Z,8.55
2023-04-18T22:31:42.727Z,8.52
2023-04-18T22:34:08.956Z,8.53
2023-04-18T22:36:35.204Z,8.55
2023-04-18T22:39:01.445Z,8.58
2023-04-18T22:41:27.686Z,8.58
2023-04-18T22:43:53.935Z,8.57
2023-04-18T22:46:20.203Z,8.54
2023-04-18T22:48:46.479Z,8.47
2023-04-18T22:51:12.698Z,8.44
2023-04-18T22:53:38.986Z,8.40
2023-04-18T22:56:05.301Z,8.30
2023-04-18T22:58:31.555Z,8.24
2023-04-18T23:00:57.786Z,8.27
2023-04-18T23:03:24.199Z,8.31
2023-04-18T23:05:50.550Z,8.33
2023-04-18T23:08:16.829Z,8.21
2023-04-18T23:10:43.108Z,8.21
2023-04-18T23:13:09.367Z,8.25
2023-04-18T23:15:36.254Z,8.30
2023-04-18T23:18:02.523Z,8.31
2023-04-18T23:20:28.782Z,8.17
2023-04-18T23:22:55.025Z,8.18
2023-04-18T23:25:21.269Z,8.09
2023-04-18T23:27:47.568Z,8.09
2023-04-18T23:30:14.259Z,8.10
2023-04-18T23:32:40.543Z,8.18
2023-04-18T23:35:06.937Z,8.10
2023-04-18T23:37:33.185Z,8.19
2023-04-18T23:39:59.427Z,8.21
2023-04-18T23:42:25.673Z,8.19
2023-04-18T23:44:51.921Z,8.19
2023-04-18T23:47:18.220Z,8.10
2023-04-18T23:49:44.567Z,8.15
2023-04-18T23:52:10.792Z,8.07
2023-04-18T23:54:37.039Z,8.11
2023-04-18T23:57:03.285Z,8.17
2023-04-18T23:59:29.548Z,8.19
